createdAt,value
2023-04-20T00:02:03.093Z,37.14
2023-04-20T00:04:31.527Z,36.70
2023-04-20T00:06:59.828Z,36.85
2023-04-20T00:09:28.577Z,36.78
2023-04-20T00:11:56.879Z,36.63
2023-04-20T00:14:25.167Z,37.20
2023-04-20T00:16:53.405Z,37.61
2023-04-20T00:19:22.249Z,37.62
2023-04-20T00:21:50.613Z,36.72
2023-04-20T00:24:18.820Z,37.15
2023-04-20T00:26:47.191Z,37.58
2023-04-20T00:29:15.596Z,37.32
2023-04-20T00:31:43.938Z,37.21
2023-04-20T00:34:12.257Z,36.46
2023-04-20T00:36:40.522Z,36.66
2023-04-20T00:39:08.885Z,36.76
2023-04-20T00:41:37.269Z,37.06
2023-04-20T00:44:13.929Z,37.25
2023-04-20T00:46:42.435Z,37.34
2023-04-20T00:49:11.084Z,37.60
2023-04-20T00:51:39.706Z,37.66
2023-04-20T00:54:08.018Z,37.39
2023-04-20T00:56:36.273Z,37.70
2023-04-20T00:59:08.162Z,36.82
2023-04-20T01:01:37.390Z,36.89
2023-04-20T01:04:07.910Z,38.15
2023-04-20T01:06:36.516Z,39.71
2023-04-20T01:09:04.797Z,40.40
2023-04-20T01:11:33.128Z,39.66
2023-04-20T01:14:01.719Z,40.98
2023-04-20T01:16:31.009Z,42.15
2023-04-20T01:18:59.491Z,42.32
2023-04-20T01:21:28.096Z,42.47
2023-04-20T01:23:56.292Z,41.47
2023-04-20T01:26:25.681Z,41.69
2023-04-20T01:28:54.131Z,41.64
2023-04-20T01:31:22.781Z,42.97
2023-04-20T01:33:52.434Z,43.10
2023-04-20T01:36:22.397Z,42.62
2023-04-20T01:38:51.763Z,43.26
2023-04-20T01:41:20.157Z,43.11
2023-04-20T01:43:48.497Z,43.80
2023-04-20T01:46:16.774Z,43.40
2023-04-20T01:48:45.112Z,43.29
2023-04-20T01:51:13.317Z,42.98
2023-04-20T01:53:41.634Z,42.61
2023-04-20T01:56:09.939Z,42.85
2023-04-20T01:58:38.197Z,42.65
2023-04-20T02:01:06.653Z,43.11
2023-04-20T02:03:35.444Z,43.36
2023-04-20T02:06:03.988Z,43.72
2023-04-20T02:08:33.676Z,43.93
2023-04-20T02:11:02.136Z,44.80
2023-04-20T02:13:30.461Z,44.80
2023-04-20T02:15:58.831Z,43.83
2023-04-20T02:18:27.074Z,44.40
2023-04-20T02:20:55.311Z,44.42
2023-04-20T02:23:23.514Z,44.54
2023-04-20T02:25:51.805Z,44.30
2023-04-20T02:28:20.525Z,44.63
2023-04-20T02:30:48.771Z,45.79
2023-04-20T02:33:17.352Z,45.50
2023-04-20T02:35:45.801Z,45.75
2023-04-20T02:38:14.313Z,46.02
2023-04-20T02:40:42.596Z,46.71
2023-04-20T02:43:11.374Z,46.82
2023-04-20T02:45:40.818Z,47.83
2023-04-20T02:48:10.394Z,48.92
2023-04-20T02:50:38.921Z,49.06
2023-04-20T02:53:27.422Z,48.07
2023-04-20T02:56:11.465Z,47.29
2023-04-20T02:58:44.881Z,48.95
2023-04-20T03:01:48.275Z,48.49
2023-04-20T03:04:22.070Z,47.48
2023-04-20T03:06:58.494Z,47.56
2023-04-20T03:09:30.799Z,47.84
2023-04-20T03:12:18.535Z,46.93
2023-04-20T03:14:49.547Z,46.16
2023-04-20T03:17:21.388Z,45.76
2023-04-20T03:19:51.382Z,47.44
2023-04-20T03:22:19.750Z,46.38
2023-04-20T03:24:53.496Z,46.12
2023-04-20T03:27:42.176Z,46.47
2023-04-20T03:30:14.684Z,47.15
2023-04-20T03:32:44.917Z,45.77
2023-04-20T03:35:13.521Z,46.31
2023-04-20T03:37:41.833Z,47.64
2023-04-20T03:40:11.044Z,47.18
2023-04-20T03:42:39.518Z,47.42
2023-04-20T03:45:08.513Z,47.92
2023-04-20T03:47:37.127Z,46.15
2023-04-20T03:50:06.427Z,47.24
2023-04-20T03:52:34.988Z,48.58
2023-04-20T03:55:07.153Z,48.42
2023-04-20T03:57:38.828Z,47.97
2023-04-20T04:00:11.186Z,48.22
2023-04-20T04:02:48.687Z,48.44
2023-04-20T04:05:25.717Z,47.56
2023-04-20T04:07:55.217Z,46.22
2023-04-20T04:10:24.740Z,46.15
2023-04-20T04:12:53.228Z,49.16
2023-04-20T04:15:21.701Z,48.51
2023-04-20T04:17:56.852Z,48.52
2023-04-20T04:20:25.412Z,48.16
2023-04-20T04:22:54.329Z,48.45
2023-04-20T04:25:34.302Z,49.54
2023-04-20T04:28:02.736Z,49.04
2023-04-20T04:30:33.466Z,50.33
2023-04-20T04:33:04.581Z,50.62
2023-04-20T04:35:34.903Z,50.04
2023-04-20T04:38:03.234Z,49.94
2023-04-20T04:40:33.575Z,50.55
2023-04-20T04:43:03.977Z,50.29
2023-04-20T04:45:32.927Z,49.43
2023-04-20T04:48:03.059Z,50.61
2023-04-20T04:50:31.537Z,51.46
2023-04-20T04:52:59.736Z,50.02
2023-04-20T04:55:27.993Z,50.04
2023-04-20T04:57:57.406Z,50.39
2023-04-20T05:00:25.950Z,51.11
2023-04-20T05:02:54.548Z,50.21
2023-04-20T05:05:23.104Z,51.59
2023-04-20T05:07:51.732Z,52.75
2023-04-20T05:10:20.181Z,52.80
2023-04-20T05:12:48.937Z,52.39
2023-04-20T05:15:17.928Z,52.33
2023-04-20T05:17:46.275Z,51.41
2023-04-20T05:20:14.536Z,52.26
2023-04-20T05:22:43.034Z,52.48
2023-04-20T05:25:13.971Z,54.69
2023-04-20T05:27:42.798Z,53.96
2023-04-20T05:30:20.469Z,54.01
2023-04-20T05:32:51.462Z,54.56
2023-04-20T05:35:21.537Z,53.38
2023-04-20T05:37:50.155Z,53.50
2023-04-20T05:40:18.611Z,53.95
2023-04-20T05:42:46.902Z,54.10
2023-04-20T05:45:15.330Z,54.65
2023-04-20T05:47:52.443Z,55.16
2023-04-20T05:50:21.792Z,54.38
2023-04-20T05:52:50.027Z,54.02
2023-04-20T05:55:22.048Z,53.88
2023-04-20T05:57:52.432Z,55.24
2023-04-20T06:00:22.070Z,55.63
2023-04-20T06:02:52.596Z,54.10
2023-04-20T06:05:21.451Z,53.64
2023-04-20T06:07:49.862Z,55.49
2023-04-20T06:10:18.169Z,54.45
2023-04-20T06:12:46.727Z,55.50
2023-04-20T06:15:14.998Z,55.13
2023-04-20T06:17:43.440Z,54.95
2023-04-20T06:20:12.187Z,54.45
2023-04-20T06:22:45.196Z,53.71
2023-04-20T06:25:13.951Z,55.15
2023-04-20T06:27:42.739Z,53.46
2023-04-20T06:30:11.843Z,53.65
2023-04-20T06:32:40.155Z,53.28
2023-04-20T06:35:09.059Z,53.49
2023-04-20T06:37:37.478Z,53.87
2023-04-20T06:40:10.596Z,53.82
2023-04-20T06:42:39.004Z,52.91
2023-04-20T06:45:08.227Z,54.65
2023-04-20T06:47:37.022Z,53.61
2023-04-20T06:50:09.873Z,53.05
2023-04-20T06:52:40.452Z,53.96
2023-04-20T06:55:09.896Z,52.85
2023-04-20T06:57:43.645Z,52.80
2023-04-20T07:00:13.197Z,52.78
2023-04-20T07:02:47.183Z,52.74
2023-04-20T07:05:17.268Z,52.03
2023-04-20T07:07:46.343Z,51.35
2023-04-20T07:10:15.673Z,51.51
2023-04-20T07:12:44.954Z,52.40
2023-04-20T07:15:13.547Z,51.18
2023-04-20T07:17:41.926Z,50.97
2023-04-20T07:20:11.105Z,51.81
2023-04-20T07:22:40.101Z,51.39
2023-04-20T07:25:11.049Z,51.26
2023-04-20T07:27:41.512Z,50.78
2023-04-20T07:30:10.875Z,51.66
2023-04-20T07:32:41.127Z,52.01
2023-04-20T07:35:10.438Z,51.79
2023-04-20T07:37:39.199Z,51.42
2023-04-20T07:40:08.550Z,51.61
2023-04-20T07:42:37.308Z,50.63
2023-04-20T07:45:07.669Z,50.64
2023-04-20T07:47:36.994Z,50.25
2023-04-20T07:50:07.816Z,51.29
2023-04-20T07:52:36.279Z,50.82
2023-04-20T07:55:06.120Z,51.30
2023-04-20T07:57:34.936Z,50.17
2023-04-20T08:00:07.398Z,50.25
2023-04-20T08:02:41.672Z,51.13
2023-04-20T08:05:11.111Z,50.74
2023-04-20T08:07:40.020Z,50.16
2023-04-20T08:10:09.282Z,50.59
2023-04-20T08:12:38.595Z,50.27
2023-04-20T08:15:08.002Z,49.94
2023-04-20T08:17:36.329Z,49.82
2023-04-20T08:20:06.124Z,50.31
2023-04-20T08:22:34.598Z,50.03
2023-04-20T08:25:04.259Z,49.71
2023-04-20T08:27:32.998Z,50.76
2023-04-20T08:30:01.859Z,49.23
2023-04-20T08:32:30.151Z,49.12
2023-04-20T08:34:58.535Z,48.54
2023-04-20T08:37:26.986Z,47.76
2023-04-20T08:39:55.326Z,47.60
2023-04-20T08:42:23.576Z,47.15
2023-04-20T08:44:52.766Z,46.88
2023-04-20T08:47:21.600Z,45.88
2023-04-20T08:49:57.638Z,45.57
2023-04-20T08:52:25.997Z,44.88
2023-04-20T08:54:57.594Z,45.10
2023-04-20T08:57:26.692Z,45.86
2023-04-20T08:59:58.227Z,45.45
2023-04-20T09:02:26.786Z,45.80
2023-04-20T09:05:05.862Z,45.34
2023-04-20T09:07:34.272Z,44.65
2023-04-20T09:10:02.718Z,43.78
2023-04-20T09:12:43.688Z,43.21
2023-04-20T09:15:24.422Z,42.42
2023-04-20T09:17:52.732Z,41.75
2023-04-20T09:20:34.978Z,41.92
2023-04-20T09:23:18.791Z,41.48
2023-04-20T09:25:52.929Z,41.41
2023-04-20T09:28:21.652Z,40.99
2023-04-20T09:30:51.615Z,40.70
2023-04-20T09:33:19.869Z,40.45
2023-04-20T09:35:48.467Z,39.75
2023-04-20T09:38:17.454Z,39.96
2023-04-20T09:40:45.876Z,40.07
2023-04-20T09:43:20.429Z,39.95
2023-04-20T09:45:50.287Z,40.19
2023-04-20T09:48:20.808Z,40.43
2023-04-20T09:50:50.969Z,40.65
2023-04-20T09:53:20.715Z,40.75
2023-04-20T09:55:54.162Z,40.81
2023-04-20T09:58:22.258Z,40.29
2023-04-20T10:00:51.258Z,40.58
2023-04-20T10:03:20.592Z,40.63
2023-04-20T10:05:50.649Z,40.78
2023-04-20T10:08:20.591Z,41.04
2023-04-20T10:10:51.437Z,41.28
2023-04-20T10:13:21.753Z,41.05
2023-04-20T10:15:50.221Z,40.74
2023-04-20T10:18:24.535Z,40.52
2023-04-20T10:21:09.390Z,40.04
2023-04-20T10:23:52.661Z,39.99
2023-04-20T10:26:20.931Z,39.84
2023-04-20T10:28:49.680Z,39.90
2023-04-20T10:31:20.393Z,39.85
2023-04-20T10:33:56.546Z,38.71
2023-04-20T10:36:31.677Z,38.30
2023-04-20T10:39:04.864Z,38.51
2023-04-20T10:41:33.051Z,38.31
2023-04-20T10:44:10.294Z,38.63
2023-04-20T10:46:38.444Z,38.58
2023-04-20T10:49:09.038Z,37.69
2023-04-20T10:51:37.386Z,37.15
2023-04-20T10:54:09.074Z,36.61
2023-04-20T10:56:38.912Z,35.98
2023-04-20T10:59:15.845Z,35.84
2023-04-20T11:01:45.503Z,35.17
2023-04-20T11:04:17.802Z,34.37
2023-04-20T11:06:48.351Z,34.18
2023-04-20T11:09:23.484Z,32.48
2023-04-20T11:12:16.008Z,32.90
2023-04-20T11:15:02.719Z,33.09
2023-04-20T11:17:35.912Z,29.49
2023-04-20T11:20:14.359Z,29.20
2023-04-20T11:22:43.704Z,29.08
2023-04-20T11:25:13.199Z,30.01
2023-04-20T11:27:42.045Z,30.61
2023-04-20T11:30:10.586Z,31.24
2023-04-20T11:32:39.244Z,31.39
2023-04-20T11:35:10.889Z,32.27
2023-04-20T11:37:54.391Z,32.84
2023-04-20T11:40:22.959Z,33.12
2023-04-20T11:42:51.472Z,33.59
2023-04-20T11:45:19.957Z,32.18
2023-04-20T11:47:51.832Z,29.91
2023-04-20T11:50:21.148Z,29.97
2023-04-20T11:52:49.207Z,30.15
2023-04-20T11:55:17.316Z,28.82
2023-04-20T11:57:45.889Z,28.62
2023-04-20T12:00:15.027Z,28.79
2023-04-20T12:02:43.276Z,27.46
2023-04-20T12:05:12.018Z,26.61
2023-04-20T12:07:40.519Z,26.74
2023-04-20T12:10:09.269Z,27.61
2023-04-20T12:12:38.446Z,26.61
2023-04-20T12:15:09.350Z,27.73
2023-04-20T12:17:37.670Z,28.18
2023-04-20T12:20:08.871Z,27.63
2023-04-20T12:22:37.034Z,25.72
2023-04-20T12:25:06.765Z,23.81
2023-04-20T12:27:34.795Z,22.83
2023-04-20T12:30:04.066Z,21.79
2023-04-20T12:32:32.098Z,22.30
2023-04-20T12:35:00.598Z,22.41
2023-04-20T12:37:29.568Z,23.25
2023-04-20T12:39:58.069Z,24.00
2023-04-20T12:42:26.484Z,24.84
2023-04-20T12:44:54.616Z,24.02
2023-04-20T12:47:23.172Z,23.95
2023-04-20T12:49:51.519Z,23.46
2023-04-20T12:52:19.492Z,22.72
2023-04-20T12:54:50.017Z,23.92
2023-04-20T12:57:18.600Z,23.94
2023-04-20T12:59:48.670Z,23.09
2023-04-20T13:02:18.026Z,22.08
2023-04-20T13:04:46.920Z,21.38
2023-04-20T13:07:15.465Z,21.02
2023-04-20T13:09:43.325Z,19.77
2023-04-20T13:12:13.362Z,19.11
2023-04-20T13:14:41.724Z,19.07
2023-04-20T13:17:09.607Z,18.82
2023-04-20T13:19:37.579Z,18.68
2023-04-20T13:22:06.167Z,17.86
2023-04-20T13:24:34.401Z,18.17
2023-04-20T13:27:02.442Z,18.68
2023-04-20T13:29:30.837Z,19.82
2023-04-20T13:31:59.086Z,20.58
2023-04-20T13:34:27.781Z,19.46
2023-04-20T13:36:56.609Z,19.41
2023-04-20T13:39:27.551Z,20.24
2023-04-20T13:41:55.800Z,21.04
2023-04-20T13:44:24.090Z,21.04
2023-04-20T13:46:52.330Z,22.06
2023-04-20T13:49:22.770Z,22.42
2023-04-20T13:51:50.664Z,21.79
2023-04-20T13:54:21.688Z,22.24
2023-04-20T13:56:49.608Z,22.72
2023-04-20T13:59:17.926Z,22.87
2023-04-20T14:01:46.234Z,21.60
2023-04-20T14:04:16.915Z,20.09
2023-04-20T14:06:44.976Z,19.90
2023-04-20T14:09:13.319Z,19.07
2023-04-20T14:11:43.556Z,18.67
2023-04-20T14:14:12.026Z,19.74
2023-04-20T14:16:48.162Z,19.66
2023-04-20T14:19:16.613Z,18.78
2023-04-20T14:21:47.354Z,19.06
2023-04-20T14:24:15.981Z,18.18
2023-04-20T14:26:44.697Z,17.62
2023-04-20T14:29:13.037Z,16.94
2023-04-20T14:31:41.494Z,16.94
2023-04-20T14:34:09.950Z,17.40
2023-04-20T14:36:38.188Z,17.40
2023-04-20T14:39:06.545Z,16.77
2023-04-20T14:41:35.102Z,16.63
2023-04-20T14:44:04.072Z,17.25
2023-04-20T14:46:32.394Z,17.67
2023-04-20T14:49:00.830Z,18.82
2023-04-20T14:51:29.143Z,20.00
2023-04-20T14:53:57.819Z,19.95
2023-04-20T14:56:26.162Z,20.23
2023-04-20T14:58:55.750Z,19.75
2023-04-20T15:01:24.032Z,20.73
2023-04-20T15:03:55.522Z,20.90
2023-04-20T15:06:24.091Z,21.04
2023-04-20T15:09:02.658Z,21.70
2023-04-20T15:11:31.122Z,21.79
2023-04-20T15:13:59.371Z,22.63
2023-04-20T15:16:27.630Z,23.34
2023-04-20T15:18:57.545Z,24.09
2023-04-20T15:21:26.996Z,24.22
2023-04-20T15:23:55.325Z,24.62
2023-04-20T15:26:23.731Z,25.28
2023-04-20T15:28:52.764Z,25.60
2023-04-20T15:31:21.015Z,25.92
2023-04-20T15:33:49.330Z,25.87
2023-04-20T15:36:19.821Z,26.92
2023-04-20T15:38:48.450Z,26.98
2023-04-20T15:41:16.670Z,27.39
2023-04-20T15:43:44.951Z,27.60
2023-04-20T15:46:13.741Z,27.71
2023-04-20T15:48:43.178Z,27.80
2023-04-20T15:51:11.594Z,27.81
2023-04-20T15:53:39.881Z,28.27
2023-04-20T15:56:08.187Z,28.98
2023-04-20T15:58:37.127Z,29.36
2023-04-20T16:01:05.439Z,29.24
2023-04-20T16:03:35.092Z,29.72
2023-04-20T16:06:03.533Z,29.63
2023-04-20T16:08:32.161Z,29.93
2023-04-20T16:11:00.585Z,30.19
2023-04-20T16:13:29.085Z,30.41
2023-04-20T16:15:57.442Z,30.37
2023-04-20T16:18:25.760Z,31.41
2023-04-20T16:20:54.285Z,31.12
2023-04-20T16:23:22.813Z,31.64
2023-04-20T16:25:51.222Z,31.33
2023-04-20T16:28:19.484Z,31.72
2023-04-20T16:30:48.031Z,31.66
2023-04-20T16:33:16.813Z,32.55
2023-04-20T16:35:45.186Z,33.18
2023-04-20T16:38:13.626Z,33.84
2023-04-20T16:40:43.417Z,33.63
2023-04-20T16:43:12.043Z,34.43
2023-04-20T16:45:40.328Z,36.08
2023-04-20T16:48:08.698Z,37.46
2023-04-20T16:50:38.100Z,37.82
2023-04-20T16:53:08.972Z,36.80
2023-04-20T16:55:37.402Z,36.61
2023-04-20T16:58:05.789Z,36.91
2023-04-20T17:00:35.304Z,38.99
2023-04-20T17:03:10.420Z,39.29
2023-04-20T17:05:41.653Z,38.27
2023-04-20T17:08:10.531Z,39.33
2023-04-20T17:10:39.379Z,39.94
2023-04-20T17:13:07.926Z,39.32
2023-04-20T17:15:36.755Z,40.67
2023-04-20T17:18:06.716Z,40.62
2023-04-20T17:20:35.279Z,40.97
2023-04-20T17:23:03.800Z,41.46
2023-04-20T17:25:31.989Z,42.52
2023-04-20T17:28:00.561Z,42.13
2023-04-20T17:30:28.855Z,42.11
2023-04-20T17:32:57.600Z,42.48
2023-04-20T17:35:25.995Z,41.81
2023-04-20T17:37:54.241Z,42.53
2023-04-20T17:40:22.515Z,42.89
2023-04-20T17:42:50.896Z,43.44
2023-04-20T17:45:19.221Z,43.50
2023-04-20T17:47:47.775Z,43.22
2023-04-20T17:50:16.535Z,44.13
2023-04-20T17:52:45.049Z,43.44
2023-04-20T17:55:13.354Z,43.58
2023-04-20T17:57:41.660Z,44.53
2023-04-20T18:00:11.682Z,44.86
2023-04-20T18:02:40.949Z,44.75
2023-04-20T18:05:09.711Z,44.63
2023-04-20T18:07:38.274Z,45.50
2023-04-20T18:10:07.472Z,45.47
2023-04-20T18:12:36.849Z,44.42
2023-04-20T18:15:08.198Z,45.34
2023-04-20T18:17:36.845Z,45.38
2023-04-20T18:20:06.808Z,46.57
2023-04-20T18:22:37.020Z,45.42
2023-04-20T18:25:06.388Z,44.92
2023-04-20T18:27:34.731Z,44.42
2023-04-20T18:30:03.231Z,45.10
2023-04-20T18:32:32.908Z,46.74
2023-04-20T18:35:01.611Z,46.96
2023-04-20T18:37:29.821Z,46.06
2023-04-20T18:39:59.681Z,47.53
2023-04-20T18:42:27.947Z,48.74
2023-04-20T18:44:56.527Z,49.51
2023-04-20T18:47:26.376Z,49.39
2023-04-20T18:49:54.698Z,49.47
2023-04-20T18:52:23.382Z,50.45
2023-04-20T18:54:52.167Z,49.98
2023-04-20T18:57:25.975Z,49.44
2023-04-20T18:59:56.375Z,49.45
2023-04-20T19:02:24.950Z,49.73
2023-04-20T19:04:53.753Z,48.40
2023-04-20T19:07:22.069Z,47.77
2023-04-20T19:09:50.528Z,50.17
2023-04-20T19:12:19.010Z,50.01
2023-04-20T19:14:49.306Z,52.50
2023-04-20T19:17:17.851Z,52.66
2023-04-20T19:19:47.908Z,52.27
2023-04-20T19:22:16.383Z,51.61
2023-04-20T19:24:44.937Z,52.68
2023-04-20T19:27:13.375Z,53.73
2023-04-20T19:29:41.602Z,50.44
2023-04-20T19:32:09.872Z,51.84
2023-04-20T19:34:38.330Z,52.59
2023-04-20T19:37:06.641Z,52.00
2023-04-20T19:39:34.944Z,50.32
2023-04-20T19:42:03.301Z,49.60
2023-04-20T19:44:31.599Z,51.54
2023-04-20T19:46:59.803Z,50.49
2023-04-20T19:49:28.055Z,49.98
2023-04-20T19:51:56.330Z,51.21
2023-04-20T19:54:24.740Z,53.41
2023-04-20T19:56:52.992Z,52.99
2023-04-20T19:59:21.395Z,51.53
2023-04-20T20:01:50.794Z,54.05
2023-04-20T20:04:20.466Z,53.55
2023-04-20T20:06:50.619Z,52.57
2023-04-20T20:09:23.194Z,53.14
2023-04-20T20:11:52.454Z,53.79
2023-04-20T20:14:20.842Z,54.43
2023-04-20T20:16:49.201Z,51.81
2023-04-20T20:19:18.197Z,52.98
2023-04-20T20:21:46.788Z,52.86
2023-04-20T20:24:16.076Z,53.88
2023-04-20T20:26:44.676Z,53.65
2023-04-20T20:29:12.941Z,53.69
2023-04-20T20:31:41.776Z,54.54
2023-04-20T20:34:10.342Z,53.49
2023-04-20T20:36:38.657Z,54.02
2023-04-20T20:39:07.548Z,53.15
2023-04-20T20:41:36.256Z,53.08
2023-04-20T20:44:04.642Z,53.00
2023-04-20T20:46:33.034Z,54.01
2023-04-20T20:49:01.604Z,54.17
2023-04-20T20:51:29.909Z,53.47
2023-04-20T20:53:58.732Z,52.75
2023-04-20T20:56:27.150Z,52.31
2023-04-20T20:58:55.505Z,52.43
2023-04-20T21:01:23.920Z,52.64
2023-04-20T21:03:52.352Z,50.26
2023-04-20T21:06:20.838Z,51.61
2023-04-20T21:08:49.095Z,52.19
2023-04-20T21:11:17.449Z,50.23
2023-04-20T21:13:45.739Z,50.82
2023-04-20T21:16:14.184Z,49.75
2023-04-20T21:18:42.717Z,48.82
2023-04-20T21:21:13.688Z,48.57
2023-04-20T21:23:42.059Z,50.40
2023-04-20T21:26:10.551Z,50.36
2023-04-20T21:28:39.134Z,50.18
2023-04-20T21:31:07.649Z,49.86
2023-04-20T21:33:36.009Z,51.87
2023-04-20T21:36:04.678Z,51.18
2023-04-20T21:38:33.113Z,50.08
2023-04-20T21:41:03.796Z,50.00
2023-04-20T21:43:31.684Z,50.02
2023-04-20T21:46:00.270Z,49.63
2023-04-20T21:48:28.906Z,50.58
2023-04-20T21:50:57.471Z,51.70
2023-04-20T21:53:25.710Z,50.45
2023-04-20T21:55:54.003Z,49.35
2023-04-20T21:58:22.270Z,51.27
2023-04-20T22:00:50.957Z,49.86
2023-04-20T22:03:19.318Z,51.36
2023-04-20T22:05:47.846Z,51.61
2023-04-20T22:08:16.066Z,52.57
2023-04-20T22:10:44.300Z,52.42
2023-04-20T22:13:14.017Z,51.03
2023-04-20T22:15:44.080Z,51.96
2023-04-20T22:18:12.861Z,52.12
2023-04-20T22:20:41.117Z,52.15
2023-04-20T22:23:09.363Z,52.81
2023-04-20T22:25:37.593Z,53.27
2023-04-20T22:28:05.966Z,53.12
2023-04-20T22:30:34.545Z,55.34
2023-04-20T22:33:03.855Z,53.52
2023-04-20T22:35:32.176Z,55.34
2023-04-20T22:38:00.457Z,54.10
2023-04-20T22:40:28.833Z,54.16
2023-04-20T22:42:57.017Z,55.80
2023-04-20T22:45:25.477Z,56.66
2023-04-20T22:47:53.786Z,55.37
2023-04-20T22:50:22.323Z,57.77
2023-04-20T22:52:51.162Z,57.58
2023-04-20T22:55:19.661Z,59.32
2023-04-20T22:57:47.909Z,57.45
2023-04-20T23:00:16.677Z,56.62
2023-04-20T23:02:45.019Z,58.47
2023-04-20T23:05:13.441Z,58.76
2023-04-20T23:07:45.145Z,59.36
2023-04-20T23:10:16.190Z,60.59
2023-04-20T23:12:44.811Z,61.42
2023-04-20T23:15:13.579Z,60.90
2023-04-20T23:17:41.948Z,62.42
2023-04-20T23:20:13.337Z,63.49
2023-04-20T23:22:41.645Z,63.25
2023-04-20T23:25:10.934Z,64.38
2023-04-20T23:27:39.276Z,64.95
2023-04-20T23:30:08.703Z,64.75
2023-04-20T23:32:37.822Z,64.99
2023-04-20T23:35:06.297Z,63.55
2023-04-20T23:37:34.647Z,63.84
2023-04-20T23:40:06.704Z,65.79
2023-04-20T23:42:39.548Z,64.92
2023-04-20T23:45:08.901Z,65.33
2023-04-20T23:47:37.271Z,66.35
2023-04-20T23:50:06.656Z,67.71
2023-04-20T23:52:34.962Z,67.69
2023-04-20T23:55:03.980Z,69.38
2023-04-20T23:57:32.225Z,69.11
